sensor_id;sensor_type;location;lat;lon;timestamp;P1;durP1;ratioP1;P2;durP2;ratioP2
24801;SDS011;12898;50.520;12.152;2024-03-08T00:00:08;44.67;;;24.80;;
24801;SDS011;12898;50.520;12.152;2024-03-08T00:02:37;44.13;;;24.87;;
24801;SDS011;12898;50.520;12.152;2024-03-08T00:05:10;48.03;;;26.17;;
24801;SDS011;12898;50.520;12.152;2024-03-08T00:07:37;46.13;;;24.50;;
24801;SDS011;12898;50.520;12.152;2024-03-08T00:10:04;48.13;;;24.70;;
24801;SDS011;12898;50.520;12.152;2024-03-08T00:12:36;47.73;;;25.47;;
24801;SDS011;12898;50.520;12.152;2024-03-08T00:15:09;42.63;;;23.43;;
24801;SDS011;12898;50.520;12.152;2024-03-08T00:17:39;45.43;;;24.00;;
24801;SDS011;12898;50.520;12.152;2024-03-08T00:20:06;43.57;;;23.73;;
24801;SDS011;12898;50.520;12.152;2024-03-08T00:22:35;42.47;;;22.90;;
24801;SDS011;12898;50.520;12.152;2024-03-08T00:25:04;46.20;;;23.87;;
24801;SDS011;12898;50.520;12.152;2024-03-08T00:27:34;46.33;;;24.10;;
24801;SDS011;12898;50.520;12.152;2024-03-08T00:30:00;49.90;;;25.87;;
24801;SDS011;12898;50.520;12.152;2024-03-08T00:32:27;52.20;;;26.97;;
24801;SDS011;12898;50.520;12.152;2024-03-08T00:34:56;45.83;;;25.27;;
24801;SDS011;12898;50.520;12.152;2024-03-08T00:37:21;49.03;;;26.00;;
24801;SDS011;12898;50.520;12.152;2024-03-08T00:39:48;48.50;;;25.33;;
24801;SDS011;12898;50.520;12.152;2024-03-08T00:42:18;50.13;;;25.93;;
24801;SDS011;12898;50.520;12.152;2024-03-08T00:44:44;47.67;;;25.33;;
24801;SDS011;12898;50.520;12.152;2024-03-08T00:47:11;43.03;;;22.90;;
24801;SDS011;12898;50.520;12.152;2024-03-08T00:49:37;46.60;;;24.13;;
24801;SDS011;12898;50.520;12.152;2024-03-08T00:52:03;44.57;;;24.27;;
24801;SDS011;12898;50.520;12.152;2024-03-08T00:54:35;44.73;;;24.33;;
24801;SDS011;12898;50.520;12.152;2024-03-08T00:57:01;48.77;;;24.77;;
24801;SDS011;12898;50.520;12.152;2024-03-08T00:59:28;44.07;;;24.33;;
24801;SDS011;12898;50.520;12.152;2024-03-08T01:01:55;50.73;;;25.87;;
24801;SDS011;12898;50.520;12.152;2024-03-08T01:04:21;46.37;;;26.40;;
24801;SDS011;12898;50.520;12.152;2024-03-08T01:06:48;54.00;;;26.60;;
24801;SDS011;12898;50.520;12.152;2024-03-08T01:09:13;49.90;;;24.80;;
24801;SDS011;12898;50.520;12.152;2024-03-08T01:11:42;52.00;;;27.13;;
24801;SDS011;12898;50.520;12.152;2024-03-08T01:14:08;51.67;;;27.60;;
24801;SDS011;12898;50.520;12.152;2024-03-08T01:16:34;49.70;;;25.70;;
24801;SDS011;12898;50.520;12.152;2024-03-08T01:19:00;50.93;;;27.23;;
24801;SDS011;12898;50.520;12.152;2024-03-08T01:21:26;52.77;;;27.53;;
24801;SDS011;12898;50.520;12.152;2024-03-08T01:23:52;50.17;;;25.40;;
24801;SDS011;12898;50.520;12.152;2024-03-08T01:26:18;49.97;;;25.97;;
24801;SDS011;12898;50.520;12.152;2024-03-08T01:28:44;53.93;;;27.00;;
24801;SDS011;12898;50.520;12.152;2024-03-08T01:31:09;46.10;;;25.57;;
24801;SDS011;12898;50.520;12.152;2024-03-08T01:33:35;52.97;;;26.53;;
24801;SDS011;12898;50.520;12.152;2024-03-08T01:36:01;54.33;;;27.50;;
24801;SDS011;12898;50.520;12.152;2024-03-08T01:38:28;49.40;;;27.00;;
24801;SDS011;12898;50.520;12.152;2024-03-08T01:40:54;52.13;;;27.00;;
24801;SDS011;12898;50.520;12.152;2024-03-08T01:43:28;51.23;;;25.07;;
24801;SDS011;12898;50.520;12.152;2024-03-08T01:45:57;50.50;;;25.80;;
24801;SDS011;12898;50.520;12.152;2024-03-08T01:48:29;49.17;;;25.77;;
24801;SDS011;12898;50.520;12.152;2024-03-08T01:50:56;48.50;;;27.13;;
24801;SDS011;12898;50.520;12.152;2024-03-08T01:53:23;47.83;;;26.13;;
24801;SDS011;12898;50.520;12.152;2024-03-08T01:55:52;50.87;;;25.70;;
24801;SDS011;12898;50.520;12.152;2024-03-08T01:58:22;51.03;;;27.40;;
24801;SDS011;12898;50.520;12.152;2024-03-08T02:00:48;49.93;;;27.03;;
24801;SDS011;12898;50.520;12.152;2024-03-08T02:03:17;55.67;;;27.80;;
24801;SDS011;12898;50.520;12.152;2024-03-08T02:05:43;48.43;;;26.60;;
24801;SDS011;12898;50.520;12.152;2024-03-08T02:08:09;51.60;;;28.23;;
24801;SDS011;12898;50.520;12.152;2024-03-08T02:10:39;50.30;;;28.13;;
24801;SDS011;12898;50.520;12.152;2024-03-08T02:13:07;49.43;;;26.10;;
24801;SDS011;12898;50.520;12.152;2024-03-08T02:18:27;52.57;;;27.23;;
24801;SDS011;12898;50.520;12.152;2024-03-08T02:20:58;53.77;;;27.80;;
24801;SDS011;12898;50.520;12.152;2024-03-08T02:23:25;51.57;;;27.33;;
24801;SDS011;12898;50.520;12.152;2024-03-08T02:25:52;49.90;;;27.20;;
24801;SDS011;12898;50.520;12.152;2024-03-08T02:28:19;55.37;;;27.13;;
24801;SDS011;12898;50.520;12.152;2024-03-08T02:30:46;55.90;;;27.40;;
24801;SDS011;12898;50.520;12.152;2024-03-08T02:33:15;50.53;;;26.33;;
24801;SDS011;12898;50.520;12.152;2024-03-08T02:35:43;50.33;;;27.13;;
24801;SDS011;12898;50.520;12.152;2024-03-08T02:38:13;51.23;;;25.90;;
24801;SDS011;12898;50.520;12.152;2024-03-08T02:40:47;50.43;;;26.80;;
24801;SDS011;12898;50.520;12.152;2024-03-08T02:43:16;54.73;;;27.47;;
24801;SDS011;12898;50.520;12.152;2024-03-08T02:45:43;51.47;;;26.13;;
24801;SDS011;12898;50.520;12.152;2024-03-08T02:48:10;52.47;;;27.13;;
24801;SDS011;12898;50.520;12.152;2024-03-08T02:50:37;55.33;;;29.03;;
24801;SDS011;12898;50.520;12.152;2024-03-08T02:53:04;48.90;;;26.47;;
24801;SDS011;12898;50.520;12.152;2024-03-08T02:55:30;51.77;;;26.20;;
24801;SDS011;12898;50.520;12.152;2024-03-08T02:57:58;54.67;;;28.27;;
24801;SDS011;12898;50.520;12.152;2024-03-08T03:00:24;54.37;;;27.27;;
24801;SDS011;12898;50.520;12.152;2024-03-08T03:02:50;54.03;;;26.27;;
24801;SDS011;12898;50.520;12.152;2024-03-08T03:05:21;50.63;;;26.83;;
24801;SDS011;12898;50.520;12.152;2024-03-08T03:07:48;53.23;;;27.83;;
24801;SDS011;12898;50.520;12.152;2024-03-08T03:10:16;50.60;;;25.97;;
24801;SDS011;12898;50.520;12.152;2024-03-08T03:12:42;55.20;;;26.67;;
24801;SDS011;12898;50.520;12.152;2024-03-08T03:15:10;50.13;;;25.93;;
24801;SDS011;12898;50.520;12.152;2024-03-08T03:17:37;48.73;;;26.30;;
24801;SDS011;12898;50.520;12.152;2024-03-08T03:20:04;56.17;;;27.90;;
24801;SDS011;12898;50.520;12.152;2024-03-08T03:22:34;52.27;;;27.67;;
24801;SDS011;12898;50.520;12.152;2024-03-08T03:25:02;59.03;;;28.23;;
24801;SDS011;12898;50.520;12.152;2024-03-08T03:27:29;52.10;;;26.43;;
24801;SDS011;12898;50.520;12.152;2024-03-08T03:29:55;52.83;;;26.60;;
24801;SDS011;12898;50.520;12.152;2024-03-08T03:32:22;56.93;;;26.73;;
24801;SDS011;12898;50.520;12.152;2024-03-08T03:34:48;54.30;;;26.87;;
24801;SDS011;12898;50.520;12.152;2024-03-08T03:37:18;50.23;;;26.60;;
24801;SDS011;12898;50.520;12.152;2024-03-08T03:39:45;49.13;;;26.37;;
24801;SDS011;12898;50.520;12.152;2024-03-08T03:42:14;47.87;;;26.27;;
24801;SDS011;12898;50.520;12.152;2024-03-08T03:44:41;53.37;;;27.50;;
24801;SDS011;12898;50.520;12.152;2024-03-08T03:47:13;56.27;;;27.50;;
24801;SDS011;12898;50.520;12.152;2024-03-08T03:49:40;52.90;;;26.60;;
24801;SDS011;12898;50.520;12.152;2024-03-08T03:52:06;53.63;;;28.03;;
24801;SDS011;12898;50.520;12.152;2024-03-08T03:54:32;52.57;;;27.40;;
24801;SDS011;12898;50.520;12.152;2024-03-08T03:56:58;52.87;;;26.83;;
24801;SDS011;12898;50.520;12.152;2024-03-08T03:59:25;50.77;;;27.07;;
24801;SDS011;12898;50.520;12.152;2024-03-08T04:01:52;54.70;;;28.80;;
24801;SDS011;12898;50.520;12.152;2024-03-08T04:04:19;58.07;;;27.83;;
24801;SDS011;12898;50.520;12.152;2024-03-08T04:06:49;51.70;;;27.67;;
24801;SDS011;12898;50.520;12.152;2024-03-08T04:09:16;53.70;;;28.20;;
24801;SDS011;12898;50.520;12.152;2024-03-08T04:11:44;55.07;;;27.77;;
24801;SDS011;12898;50.520;12.152;2024-03-08T04:14:10;59.73;;;27.50;;
24801;SDS011;12898;50.520;12.152;2024-03-08T04:16:37;55.00;;;28.27;;
24801;SDS011;12898;50.520;12.152;2024-03-08T04:19:02;52.10;;;26.97;;
24801;SDS011;12898;50.520;12.152;2024-03-08T04:21:32;50.07;;;26.13;;
24801;SDS011;12898;50.520;12.152;2024-03-08T04:23:58;56.87;;;27.47;;
24801;SDS011;12898;50.520;12.152;2024-03-08T04:26:24;56.23;;;29.20;;
24801;SDS011;12898;50.520;12.152;2024-03-08T04:28:51;58.23;;;27.53;;
24801;SDS011;12898;50.520;12.152;2024-03-08T04:31:16;52.73;;;26.07;;
24801;SDS011;12898;50.520;12.152;2024-03-08T04:33:42;56.83;;;27.90;;
24801;SDS011;12898;50.520;12.152;2024-03-08T04:36:09;54.27;;;27.43;;
24801;SDS011;12898;50.520;12.152;2024-03-08T04:38:38;54.83;;;28.03;;
24801;SDS011;12898;50.520;12.152;2024-03-08T04:41:06;53.63;;;28.23;;
24801;SDS011;12898;50.520;12.152;2024-03-08T04:43:32;52.17;;;27.03;;
24801;SDS011;12898;50.520;12.152;2024-03-08T04:45:59;56.57;;;28.10;;
24801;SDS011;12898;50.520;12.152;2024-03-08T04:48:24;55.00;;;27.77;;
24801;SDS011;12898;50.520;12.152;2024-03-08T04:50:53;51.17;;;25.50;;
24801;SDS011;12898;50.520;12.152;2024-03-08T04:53:19;54.33;;;27.20;;
24801;SDS011;12898;50.520;12.152;2024-03-08T04:55:45;54.20;;;27.00;;
24801;SDS011;12898;50.520;12.152;2024-03-08T04:58:10;53.43;;;26.27;;
24801;SDS011;12898;50.520;12.152;2024-03-08T05:00:36;49.07;;;26.10;;
24801;SDS011;12898;50.520;12.152;2024-03-08T05:03:02;51.07;;;25.80;;
24801;SDS011;12898;50.520;12.152;2024-03-08T05:05:29;53.37;;;26.97;;
24801;SDS011;12898;50.520;12.152;2024-03-08T05:07:56;55.20;;;27.63;;
24801;SDS011;12898;50.520;12.152;2024-03-08T05:10:22;55.30;;;26.80;;
24801;SDS011;12898;50.520;12.152;2024-03-08T05:12:47;58.30;;;28.53;;
24801;SDS011;12898;50.520;12.152;2024-03-08T05:15:13;57.33;;;28.30;;
24801;SDS011;12898;50.520;12.152;2024-03-08T05:17:39;59.63;;;29.27;;
24801;SDS011;12898;50.520;12.152;2024-03-08T05:20:05;62.47;;;31.47;;
24801;SDS011;12898;50.520;12.152;2024-03-08T05:22:37;72.47;;;33.83;;
24801;SDS011;12898;50.520;12.152;2024-03-08T05:25:03;70.17;;;34.97;;
24801;SDS011;12898;50.520;12.152;2024-03-08T05:27:29;73.63;;;35.30;;
24801;SDS011;12898;50.520;12.152;2024-03-08T05:29:55;68.00;;;32.80;;
24801;SDS011;12898;50.520;12.152;2024-03-08T05:32:20;63.10;;;30.97;;
24801;SDS011;12898;50.520;12.152;2024-03-08T05:34:46;65.27;;;30.90;;
24801;SDS011;12898;50.520;12.152;2024-03-08T05:37:12;57.30;;;30.60;;
24801;SDS011;12898;50.520;12.152;2024-03-08T05:39:38;60.70;;;30.23;;
24801;SDS011;12898;50.520;12.152;2024-03-08T05:42:03;61.90;;;31.10;;
24801;SDS011;12898;50.520;12.152;2024-03-08T05:44:29;57.13;;;29.47;;
24801;SDS011;12898;50.520;12.152;2024-03-08T05:46:55;53.60;;;27.70;;
24801;SDS011;12898;50.520;12.152;2024-03-08T05:49:21;55.67;;;29.37;;
24801;SDS011;12898;50.520;12.152;2024-03-08T05:51:47;54.97;;;29.17;;
24801;SDS011;12898;50.520;12.152;2024-03-08T05:54:13;61.80;;;30.23;;
24801;SDS011;12898;50.520;12.152;2024-03-08T05:56:39;58.77;;;29.97;;
24801;SDS011;12898;50.520;12.152;2024-03-08T05:59:08;57.33;;;30.03;;
24801;SDS011;12898;50.520;12.152;2024-03-08T06:01:35;59.23;;;28.63;;
24801;SDS011;12898;50.520;12.152;2024-03-08T06:04:02;59.97;;;30.20;;
24801;SDS011;12898;50.520;12.152;2024-03-08T06:06:28;62.63;;;30.40;;
24801;SDS011;12898;50.520;12.152;2024-03-08T06:08:54;59.97;;;30.07;;
24801;SDS011;12898;50.520;12.152;2024-03-08T06:11:21;58.77;;;28.80;;
24801;SDS011;12898;50.520;12.152;2024-03-08T06:13:47;57.70;;;28.37;;
24801;SDS011;12898;50.520;12.152;2024-03-08T06:16:17;59.33;;;30.03;;
24801;SDS011;12898;50.520;12.152;2024-03-08T06:18:43;61.17;;;32.40;;
24801;SDS011;12898;50.520;12.152;2024-03-08T06:21:09;57.57;;;28.33;;
24801;SDS011;12898;50.520;12.152;2024-03-08T06:23:37;59.87;;;29.40;;
24801;SDS011;12898;50.520;12.152;2024-03-08T06:26:03;60.03;;;29.00;;
24801;SDS011;12898;50.520;12.152;2024-03-08T06:28:30;61.17;;;31.07;;
24801;SDS011;12898;50.520;12.152;2024-03-08T06:30:57;62.90;;;31.93;;
24801;SDS011;12898;50.520;12.152;2024-03-08T06:33:27;64.40;;;31.00;;
24801;SDS011;12898;50.520;12.152;2024-03-08T06:35:54;67.00;;;33.17;;
24801;SDS011;12898;50.520;12.152;2024-03-08T06:38:23;68.30;;;32.10;;
24801;SDS011;12898;50.520;12.152;2024-03-08T06:40:49;63.97;;;33.07;;
24801;SDS011;12898;50.520;12.152;2024-03-08T06:43:16;66.27;;;33.60;;
24801;SDS011;12898;50.520;12.152;2024-03-08T06:45:43;60.30;;;31.77;;
24801;SDS011;12898;50.520;12.152;2024-03-08T06:48:15;63.37;;;32.93;;
24801;SDS011;12898;50.520;12.152;2024-03-08T06:50:42;68.10;;;34.33;;
24801;SDS011;12898;50.520;12.152;2024-03-08T06:53:10;61.73;;;31.90;;
24801;SDS011;12898;50.520;12.152;2024-03-08T06:55:36;63.50;;;32.23;;
24801;SDS011;12898;50.520;12.152;2024-03-08T06:58:02;61.87;;;32.97;;
24801;SDS011;12898;50.520;12.152;2024-03-08T07:00:28;56.00;;;31.27;;
24801;SDS011;12898;50.520;12.152;2024-03-08T07:02:55;61.23;;;31.63;;
24801;SDS011;12898;50.520;12.152;2024-03-08T07:05:28;60.50;;;31.53;;
24801;SDS011;12898;50.520;12.152;2024-03-08T07:07:54;58.97;;;31.07;;
24801;SDS011;12898;50.520;12.152;2024-03-08T07:10:20;60.00;;;30.40;;
24801;SDS011;12898;50.520;12.152;2024-03-08T07:12:49;62.63;;;32.37;;
24801;SDS011;12898;50.520;12.152;2024-03-08T07:15:15;57.93;;;31.70;;
24801;SDS011;12898;50.520;12.152;2024-03-08T07:17:44;61.30;;;33.33;;
24801;SDS011;12898;50.520;12.152;2024-03-08T07:20:13;66.23;;;34.73;;
24801;SDS011;12898;50.520;12.152;2024-03-08T07:22:43;62.13;;;34.13;;
24801;SDS011;12898;50.520;12.152;2024-03-08T07:25:12;64.00;;;33.93;;
24801;SDS011;12898;50.520;12.152;2024-03-08T07:27:49;66.50;;;34.73;;
24801;SDS011;12898;50.520;12.152;2024-03-08T07:30:19;62.80;;;32.27;;
24801;SDS011;12898;50.520;12.152;2024-03-08T07:33:05;63.47;;;33.27;;
24801;SDS011;12898;50.520;12.152;2024-03-08T07:35:32;71.40;;;37.53;;
24801;SDS011;12898;50.520;12.152;2024-03-08T07:38:07;71.13;;;37.43;;
24801;SDS011;12898;50.520;12.152;2024-03-08T07:40:40;59.63;;;33.57;;
24801;SDS011;12898;50.520;12.152;2024-03-08T07:43:09;58.30;;;32.63;;
24801;SDS011;12898;50.520;12.152;2024-03-08T07:45:36;52.27;;;30.67;;
24801;SDS011;12898;50.520;12.152;2024-03-08T07:48:03;49.33;;;28.20;;
24801;SDS011;12898;50.520;12.152;2024-03-08T07:50:36;53.83;;;28.80;;
24801;SDS011;12898;50.520;12.152;2024-03-08T07:53:03;47.77;;;28.00;;
24801;SDS011;12898;50.520;12.152;2024-03-08T07:55:31;50.50;;;28.20;;
24801;SDS011;12898;50.520;12.152;2024-03-08T07:57:58;48.27;;;28.00;;
24801;SDS011;12898;50.520;12.152;2024-03-08T08:00:24;41.93;;;24.47;;
24801;SDS011;12898;50.520;12.152;2024-03-08T08:02:52;47.10;;;26.97;;
24801;SDS011;12898;50.520;12.152;2024-03-08T08:05:19;48.00;;;27.37;;
24801;SDS011;12898;50.520;12.152;2024-03-08T08:07:44;51.10;;;27.73;;
24801;SDS011;12898;50.520;12.152;2024-03-08T08:10:12;46.97;;;27.93;;
24801;SDS011;12898;50.520;12.152;2024-03-08T08:12:46;51.80;;;29.17;;
24801;SDS011;12898;50.520;12.152;2024-03-08T08:15:18;48.27;;;28.03;;
24801;SDS011;12898;50.520;12.152;2024-03-08T08:17:44;49.57;;;29.10;;
24801;SDS011;12898;50.520;12.152;2024-03-08T08:20:11;46.20;;;27.17;;
24801;SDS011;12898;50.520;12.152;2024-03-08T08:22:40;44.13;;;26.67;;
24801;SDS011;12898;50.520;12.152;2024-03-08T08:25:10;42.20;;;26.57;;
24801;SDS011;12898;50.520;12.152;2024-03-08T08:27:40;44.60;;;26.77;;
24801;SDS011;12898;50.520;12.152;2024-03-08T08:30:09;38.43;;;23.50;;
24801;SDS011;12898;50.520;12.152;2024-03-08T08:32:36;38.40;;;22.90;;
24801;SDS011;12898;50.520;12.152;2024-03-08T08:35:04;36.27;;;21.57;;
24801;SDS011;12898;50.520;12.152;2024-03-08T08:37:40;36.20;;;21.30;;
24801;SDS011;12898;50.520;12.152;2024-03-08T08:40:06;35.07;;;20.70;;
24801;SDS011;12898;50.520;12.152;2024-03-08T08:42:39;36.37;;;22.70;;
24801;SDS011;12898;50.520;12.152;2024-03-08T08:45:05;35.73;;;20.70;;
24801;SDS011;12898;50.520;12.152;2024-03-08T08:47:35;33.87;;;19.50;;
24801;SDS011;12898;50.520;12.152;2024-03-08T08:50:02;34.03;;;21.50;;
24801;SDS011;12898;50.520;12.152;2024-03-08T08:52:30;37.30;;;21.70;;
24801;SDS011;12898;50.520;12.152;2024-03-08T08:54:57;33.63;;;20.13;;
24801;SDS011;12898;50.520;12.152;2024-03-08T08:57:23;31.80;;;19.03;;
24801;SDS011;12898;50.520;12.152;2024-03-08T08:59:49;30.30;;;18.93;;
24801;SDS011;12898;50.520;12.152;2024-03-08T09:02:15;30.10;;;16.08;;
24801;SDS011;12898;50.520;12.152;2024-03-08T09:04:41;27.40;;;16.65;;
24801;SDS011;12898;50.520;12.152;2024-03-08T09:07:08;28.35;;;15.45;;
24801;SDS011;12898;50.520;12.152;2024-03-08T09:09:34;24.40;;;14.23;;
24801;SDS011;12898;50.520;12.152;2024-03-08T09:12:01;27.60;;;15.07;;
24801;SDS011;12898;50.520;12.152;2024-03-08T09:14:26;25.92;;;15.25;;
24801;SDS011;12898;50.520;12.152;2024-03-08T09:16:52;28.77;;;15.95;;
24801;SDS011;12898;50.520;12.152;2024-03-08T09:19:18;24.75;;;15.15;;
24801;SDS011;12898;50.520;12.152;2024-03-08T09:21:44;27.33;;;15.02;;
24801;SDS011;12898;50.520;12.152;2024-03-08T09:24:10;25.90;;;16.40;;
24801;SDS011;12898;50.520;12.152;2024-03-08T09:26:37;25.05;;;14.60;;
24801;SDS011;12898;50.520;12.152;2024-03-08T09:29:03;26.25;;;14.90;;
24801;SDS011;12898;50.520;12.152;2024-03-08T09:31:31;25.60;;;15.48;;
24801;SDS011;12898;50.520;12.152;2024-03-08T09:33:57;24.63;;;14.38;;
24801;SDS011;12898;50.520;12.152;2024-03-08T09:36:23;24.50;;;14.43;;
24801;SDS011;12898;50.520;12.152;2024-03-08T09:38:50;28.45;;;17.60;;
24801;SDS011;12898;50.520;12.152;2024-03-08T09:41:17;29.15;;;17.83;;
24801;SDS011;12898;50.520;12.152;2024-03-08T09:43:43;27.85;;;17.85;;
24801;SDS011;12898;50.520;12.152;2024-03-08T09:46:10;28.52;;;18.75;;
24801;SDS011;12898;50.520;12.152;2024-03-08T09:48:39;28.75;;;18.42;;
24801;SDS011;12898;50.520;12.152;2024-03-08T09:51:06;27.83;;;17.55;;
24801;SDS011;12898;50.520;12.152;2024-03-08T09:53:33;27.95;;;17.90;;
24801;SDS011;12898;50.520;12.152;2024-03-08T09:55:58;29.90;;;18.23;;
24801;SDS011;12898;50.520;12.152;2024-03-08T09:58:24;26.08;;;17.23;;
24801;SDS011;12898;50.520;12.152;2024-03-08T10:00:59;25.85;;;17.05;;
24801;SDS011;12898;50.520;12.152;2024-03-08T10:03:29;26.40;;;15.70;;
24801;SDS011;12898;50.520;12.152;2024-03-08T10:05:57;24.40;;;15.88;;
24801;SDS011;12898;50.520;12.152;2024-03-08T10:08:26;26.83;;;16.85;;
24801;SDS011;12898;50.520;12.152;2024-03-08T10:10:54;29.88;;;18.15;;
24801;SDS011;12898;50.520;12.152;2024-03-08T10:13:24;27.52;;;18.77;;
24801;SDS011;12898;50.520;12.152;2024-03-08T10:15:52;25.83;;;16.48;;
24801;SDS011;12898;50.520;12.152;2024-03-08T10:18:18;27.50;;;17.90;;
24801;SDS011;12898;50.520;12.152;2024-03-08T10:20:44;26.05;;;16.65;;
24801;SDS011;12898;50.520;12.152;2024-03-08T10:23:10;22.20;;;15.18;;
24801;SDS011;12898;50.520;12.152;2024-03-08T10:25:36;23.80;;;16.40;;
24801;SDS011;12898;50.520;12.152;2024-03-08T10:28:03;24.92;;;16.83;;
24801;SDS011;12898;50.520;12.152;2024-03-08T10:30:29;22.60;;;14.52;;
24801;SDS011;12898;50.520;12.152;2024-03-08T10:32:55;25.95;;;14.70;;
24801;SDS011;12898;50.520;12.152;2024-03-08T10:35:21;20.58;;;13.95;;
24801;SDS011;12898;50.520;12.152;2024-03-08T10:37:49;22.40;;;13.77;;
24801;SDS011;12898;50.520;12.152;2024-03-08T10:40:23;21.02;;;13.38;;
24801;SDS011;12898;50.520;12.152;2024-03-08T10:51:07;20.85;;;12.90;;
24801;SDS011;12898;50.520;12.152;2024-03-08T10:53:33;22.70;;;14.05;;
24801;SDS011;12898;50.520;12.152;2024-03-08T10:55:59;21.50;;;13.65;;
24801;SDS011;12898;50.520;12.152;2024-03-08T10:58:26;22.38;;;14.55;;
24801;SDS011;12898;50.520;12.152;2024-03-08T11:00:53;21.52;;;13.20;;
24801;SDS011;12898;50.520;12.152;2024-03-08T11:06:06;21.80;;;14.25;;
24801;SDS011;12898;50.520;12.152;2024-03-08T11:08:46;23.17;;;13.85;;
24801;SDS011;12898;50.520;12.152;2024-03-08T11:11:23;22.58;;;14.30;;
24801;SDS011;12898;50.520;12.152;2024-03-08T11:13:52;21.25;;;13.20;;
24801;SDS011;12898;50.520;12.152;2024-03-08T11:18:54;21.70;;;14.25;;
24801;SDS011;12898;50.520;12.152;2024-03-08T11:21:29;23.23;;;15.02;;
24801;SDS011;12898;50.520;12.152;2024-03-08T11:24:07;21.88;;;13.27;;
24801;SDS011;12898;50.520;12.152;2024-03-08T11:26:39;21.25;;;13.52;;
24801;SDS011;12898;50.520;12.152;2024-03-08T11:32:03;25.20;;;14.70;;
24801;SDS011;12898;50.520;12.152;2024-03-08T11:34:36;20.35;;;14.25;;
24801;SDS011;12898;50.520;12.152;2024-03-08T11:37:19;20.98;;;14.18;;
24801;SDS011;12898;50.520;12.152;2024-03-08T11:42:17;19.23;;;13.02;;
24801;SDS011;12898;50.520;12.152;2024-03-08T11:44:47;20.77;;;13.35;;
24801;SDS011;12898;50.520;12.152;2024-03-08T11:47:15;19.95;;;13.02;;
24801;SDS011;12898;50.520;12.152;2024-03-08T11:49:41;19.42;;;12.85;;
24801;SDS011;12898;50.520;12.152;2024-03-08T11:52:12;20.10;;;13.63;;
24801;SDS011;12898;50.520;12.152;2024-03-08T11:54:39;21.02;;;13.35;;
24801;SDS011;12898;50.520;12.152;2024-03-08T11:57:19;22.23;;;14.57;;
24801;SDS011;12898;50.520;12.152;2024-03-08T11:59:52;20.65;;;14.60;;
24801;SDS011;12898;50.520;12.152;2024-03-08T12:02:18;20.55;;;13.75;;
24801;SDS011;12898;50.520;12.152;2024-03-08T12:04:44;19.92;;;12.93;;
24801;SDS011;12898;50.520;12.152;2024-03-08T12:07:13;18.15;;;12.18;;
24801;SDS011;12898;50.520;12.152;2024-03-08T12:09:42;20.88;;;14.18;;
24801;SDS011;12898;50.520;12.152;2024-03-08T12:12:11;19.00;;;12.00;;
24801;SDS011;12898;50.520;12.152;2024-03-08T12:14:37;18.83;;;10.82;;
24801;SDS011;12898;50.520;12.152;2024-03-08T12:17:04;18.05;;;11.63;;
24801;SDS011;12898;50.520;12.152;2024-03-08T12:19:31;19.85;;;11.40;;
24801;SDS011;12898;50.520;12.152;2024-03-08T12:21:57;16.77;;;10.13;;
24801;SDS011;12898;50.520;12.152;2024-03-08T12:24:35;16.65;;;10.98;;
24801;SDS011;12898;50.520;12.152;2024-03-08T12:27:02;16.42;;;10.30;;
24801;SDS011;12898;50.520;12.152;2024-03-08T12:29:44;15.57;;;10.20;;
24801;SDS011;12898;50.520;12.152;2024-03-08T12:32:10;16.70;;;10.23;;
24801;SDS011;12898;50.520;12.152;2024-03-08T12:34:36;17.48;;;10.95;;
24801;SDS011;12898;50.520;12.152;2024-03-08T12:37:02;17.05;;;11.25;;
24801;SDS011;12898;50.520;12.152;2024-03-08T12:39:32;17.08;;;10.85;;
24801;SDS011;12898;50.520;12.152;2024-03-08T12:41:58;18.88;;;12.10;;
24801;SDS011;12898;50.520;12.152;2024-03-08T12:44:24;18.77;;;11.95;;
24801;SDS011;12898;50.520;12.152;2024-03-08T12:46:51;16.58;;;9.82;;
24801;SDS011;12898;50.520;12.152;2024-03-08T12:49:18;15.88;;;9.80;;
24801;SDS011;12898;50.520;12.152;2024-03-08T12:51:47;17.15;;;10.93;;
24801;SDS011;12898;50.520;12.152;2024-03-08T12:54:13;17.23;;;10.50;;
24801;SDS011;12898;50.520;12.152;2024-03-08T12:56:39;16.55;;;10.60;;
24801;SDS011;12898;50.520;12.152;2024-03-08T12:59:06;18.63;;;12.35;;
24801;SDS011;12898;50.520;12.152;2024-03-08T13:01:33;19.42;;;12.30;;
24801;SDS011;12898;50.520;12.152;2024-03-08T13:04:02;18.65;;;12.43;;
24801;SDS011;12898;50.520;12.152;2024-03-08T13:06:31;18.45;;;12.40;;
24801;SDS011;12898;50.520;12.152;2024-03-08T13:08:57;17.42;;;11.98;;
24801;SDS011;12898;50.520;12.152;2024-03-08T13:11:30;15.43;;;10.52;;
24801;SDS011;12898;50.520;12.152;2024-03-08T13:14:01;15.75;;;10.73;;
24801;SDS011;12898;50.520;12.152;2024-03-08T13:16:29;17.77;;;11.50;;
24801;SDS011;12898;50.520;12.152;2024-03-08T13:18:54;17.15;;;12.00;;
24801;SDS011;12898;50.520;12.152;2024-03-08T13:21:22;18.17;;;12.10;;
24801;SDS011;12898;50.520;12.152;2024-03-08T13:23:49;19.10;;;11.98;;
24801;SDS011;12898;50.520;12.152;2024-03-08T13:26:15;18.38;;;12.48;;
24801;SDS011;12898;50.520;12.152;2024-03-08T13:28:47;17.65;;;12.15;;
24801;SDS011;12898;50.520;12.152;2024-03-08T13:31:19;16.77;;;11.70;;
24801;SDS011;12898;50.520;12.152;2024-03-08T13:33:45;17.52;;;12.32;;
24801;SDS011;12898;50.520;12.152;2024-03-08T13:36:15;18.70;;;12.20;;
24801;SDS011;12898;50.520;12.152;2024-03-08T13:38:44;18.27;;;12.32;;
24801;SDS011;12898;50.520;12.152;2024-03-08T13:41:14;18.02;;;11.98;;
24801;SDS011;12898;50.520;12.152;2024-03-08T13:43:42;21.75;;;13.13;;
24801;SDS011;12898;50.520;12.152;2024-03-08T13:46:12;19.58;;;12.98;;
24801;SDS011;12898;50.520;12.152;2024-03-08T13:48:37;18.27;;;12.48;;
24801;SDS011;12898;50.520;12.152;2024-03-08T13:51:04;18.63;;;12.98;;
24801;SDS011;12898;50.520;12.152;2024-03-08T13:53:31;20.10;;;13.45;;
24801;SDS011;12898;50.520;12.152;2024-03-08T13:55:58;19.30;;;14.10;;
24801;SDS011;12898;50.520;12.152;2024-03-08T13:58:25;19.58;;;12.88;;
24801;SDS011;12898;50.520;12.152;2024-03-08T14:00:51;19.73;;;13.57;;
24801;SDS011;12898;50.520;12.152;2024-03-08T14:03:17;21.75;;;13.90;;
24801;SDS011;12898;50.520;12.152;2024-03-08T14:05:43;22.80;;;15.00;;
24801;SDS011;12898;50.520;12.152;2024-03-08T14:08:09;22.83;;;15.13;;
24801;SDS011;12898;50.520;12.152;2024-03-08T14:10:37;21.27;;;15.30;;
24801;SDS011;12898;50.520;12.152;2024-03-08T14:13:03;21.60;;;15.27;;
24801;SDS011;12898;50.520;12.152;2024-03-08T14:15:31;19.92;;;14.63;;
24801;SDS011;12898;50.520;12.152;2024-03-08T14:17:58;21.45;;;14.65;;
24801;SDS011;12898;50.520;12.152;2024-03-08T14:20:24;23.10;;;16.20;;
24801;SDS011;12898;50.520;12.152;2024-03-08T14:22:53;22.95;;;14.85;;
24801;SDS011;12898;50.520;12.152;2024-03-08T14:25:20;21.95;;;15.07;;
24801;SDS011;12898;50.520;12.152;2024-03-08T14:27:48;22.75;;;15.55;;
24801;SDS011;12898;50.520;12.152;2024-03-08T14:30:18;21.52;;;14.73;;
24801;SDS011;12898;50.520;12.152;2024-03-08T14:33:06;22.67;;;15.90;;